createdAt,value
2023-03-28T00:00:34.588Z,57.83
2023-03-28T00:06:04.136Z,57.18
2023-03-28T00:11:32.457Z,57.50
2023-03-28T00:17:02.210Z,57.42
2023-03-28T00:22:30.839Z,57.79
2023-03-28T00:27:59.015Z,57.99
2023-03-28T00:33:26.349Z,58.23
2023-03-28T00:38:54.259Z,58.15
2023-03-28T00:44:51.096Z,58.30
2023-03-28T00:50:21.318Z,57.56
2023-03-28T00:55:54.912Z,58.16
2023-03-28T01:01:22.762Z,58.04
2023-03-28T01:06:55.043Z,58.06
2023-03-28T01:12:24.249Z,58.39
2023-03-28T01:17:53.787Z,57.81
2023-03-28T01:23:52.563Z,57.27
2023-03-28T01:29:49.612Z,57.65
2023-03-28T01:35:57.216Z,56.74
2023-03-28T01:41:43.823Z,56.95
2023-03-28T01:47:23.366Z,56.61
2023-03-28T01:52:58.900Z,56.42
2023-03-28T01:58:48.365Z,56.32
2023-03-28T02:04:26.929Z,61.47
2023-03-28T02:09:58.450Z,61.45
2023-03-28T02:15:55.458Z,61.07
2023-03-28T02:21:35.716Z,61.00
2023-03-28T02:27:28.961Z,60.51
2023-03-28T02:33:38.264Z,60.33
2023-03-28T02:39:29.924Z,60.67
2023-03-28T02:45:06.477Z,59.69
2023-03-28T02:51:01.628Z,58.69
2023-03-28T02:56:37.392Z,58.17
2023-03-28T03:02:08.640Z,58.96
2023-03-28T03:07:38.024Z,59.05
2023-03-28T03:13:06.484Z,59.58
2023-03-28T03:18:35.233Z,58.41
2023-03-28T03:24:03.432Z,58.54
2023-03-28T03:29:38.634Z,57.67
2023-03-28T03:35:08.116Z,57.30
2023-03-28T03:40:38.209Z,56.80
2023-03-28T03:46:06.354Z,57.24
2023-03-28T03:51:34.479Z,57.28
2023-03-28T03:57:03.206Z,56.85
2023-03-28T04:02:32.044Z,56.35
2023-03-28T04:08:02.191Z,55.77
2023-03-28T04:13:37.453Z,55.79
2023-03-28T04:19:08.853Z,55.10
2023-03-28T04:24:37.762Z,54.44
2023-03-28T04:30:18.219Z,53.58
2023-03-28T04:36:04.584Z,54.91
2023-03-28T04:41:33.484Z,53.20
2023-03-28T04:47:04.105Z,52.35
2023-03-28T04:52:32.904Z,52.52
2023-03-28T04:57:59.946Z,53.12
2023-03-28T05:03:28.255Z,53.02
2023-03-28T05:09:02.189Z,52.08
2023-03-28T05:14:29.772Z,52.12
2023-03-28T05:20:11.356Z,52.78
2023-03-28T05:25:52.430Z,51.86
2023-03-28T05:31:21.122Z,45.43
2023-03-28T05:36:59.753Z,47.87
2023-03-28T05:42:30.522Z,50.44
2023-03-28T05:47:58.092Z,50.90
2023-03-28T05:53:25.724Z,50.74
2023-03-28T05:58:53.858Z,50.07
2023-03-28T06:04:22.966Z,48.99
2023-03-28T06:09:51.489Z,47.83
2023-03-28T06:15:20.496Z,48.61
2023-03-28T06:20:51.557Z,47.58
2023-03-28T06:26:19.935Z,47.79
2023-03-28T06:31:47.731Z,45.15
2023-03-28T06:37:15.290Z,43.18
2023-03-28T06:43:03.093Z,43.35
2023-03-28T06:48:50.680Z,44.70
2023-03-28T06:54:43.505Z,46.41
2023-03-28T07:00:11.758Z,45.69
2023-03-28T07:06:10.778Z,44.59
2023-03-28T07:11:38.560Z,43.10
2023-03-28T07:17:06.187Z,41.00
2023-03-28T07:22:35.834Z,35.10
2023-03-28T07:28:03.586Z,33.53
2023-03-28T07:33:37.373Z,35.78
2023-03-28T07:39:17.166Z,36.55
2023-03-28T07:44:44.847Z,34.98
2023-03-28T07:50:12.623Z,34.22
2023-03-28T07:55:54.410Z,32.61
2023-03-28T08:01:37.609Z,37.13
2023-03-28T08:07:08.087Z,38.13
2023-03-28T08:12:37.861Z,37.21
2023-03-28T08:18:05.732Z,32.43
2023-03-28T08:23:33.649Z,27.34
2023-03-28T08:29:29.648Z,30.37
2023-03-28T08:34:58.834Z,31.79
2023-03-28T08:40:29.633Z,34.30
2023-03-28T08:46:04.689Z,34.95
2023-03-28T08:51:38.095Z,32.17
2023-03-28T08:57:10.834Z,30.55
2023-03-28T09:02:39.136Z,25.33
2023-03-28T09:08:19.906Z,27.92
2023-03-28T09:14:36.686Z,49.48
2023-03-28T09:20:20.205Z,48.31
2023-03-28T09:26:22.634Z,48.37
2023-03-28T09:32:03.635Z,46.34
2023-03-28T09:37:42.187Z,39.84
2023-03-28T09:43:18.964Z,39.14
2023-03-28T09:49:01.403Z,36.84
2023-03-28T09:54:36.074Z,36.66
2023-03-28T10:00:08.437Z,32.46
2023-03-28T10:05:45.441Z,30.25
2023-03-28T10:11:45.284Z,28.36
2023-03-28T10:17:34.741Z,28.92
2023-03-28T10:23:05.831Z,29.09
2023-03-28T10:28:37.436Z,28.38
2023-03-28T10:34:05.094Z,30.11
2023-03-28T10:40:06.066Z,30.11
2023-03-28T10:46:02.823Z,27.76
2023-03-28T10:51:49.713Z,25.89
2023-03-28T10:57:29.664Z,27.47
2023-03-28T11:03:23.010Z,25.18
2023-03-28T11:09:26.765Z,26.07
2023-03-28T11:15:23.654Z,30.43
2023-03-28T11:21:09.855Z,30.53
2023-03-28T11:27:20.731Z,30.23
2023-03-28T11:33:19.658Z,31.41
2023-03-28T11:39:01.715Z,33.59
2023-03-28T11:45:10.604Z,31.11
2023-03-28T11:51:05.608Z,28.47
2023-03-28T11:56:52.829Z,30.53
2023-03-28T12:02:51.948Z,45.09
2023-03-28T12:08:32.422Z,47.12
2023-03-28T12:14:28.755Z,46.49
2023-03-28T12:20:01.034Z,43.43
2023-03-28T12:25:45.181Z,45.00
2023-03-28T12:31:51.078Z,57.07
2023-03-28T12:37:33.574Z,61.21
2023-03-28T12:43:08.039Z,60.96
2023-03-28T12:48:44.011Z,59.27
2023-03-28T12:54:17.804Z,55.03
2023-03-28T13:00:11.142Z,51.92
2023-03-28T13:06:10.911Z,50.52
2023-03-28T13:12:20.329Z,51.60
2023-03-28T13:18:14.882Z,49.58
2023-03-28T13:23:47.855Z,44.03
2023-03-28T13:29:16.903Z,40.04
2023-03-28T13:35:00.280Z,39.11
2023-03-28T13:41:07.253Z,38.77
2023-03-28T13:46:49.274Z,37.85
2023-03-28T13:52:23.103Z,46.58
2023-03-28T13:57:51.761Z,43.53
2023-03-28T14:03:20.903Z,42.06
2023-03-28T14:08:51.394Z,41.56
2023-03-28T14:14:29.360Z,41.20
2023-03-28T14:19:59.844Z,41.59
2023-03-28T14:25:28.057Z,39.74
2023-03-28T14:30:58.358Z,38.50
2023-03-28T14:36:32.277Z,35.40
2023-03-28T14:42:04.694Z,35.63
2023-03-28T14:47:34.647Z,35.16
2023-03-28T14:53:10.178Z,36.54
2023-03-28T14:58:40.990Z,34.84
2023-03-28T15:04:15.429Z,34.61
2023-03-28T15:09:43.936Z,32.30
2023-03-28T15:15:30.061Z,31.11
2023-03-28T15:21:01.741Z,29.85
2023-03-28T15:26:48.564Z,28.86
2023-03-28T15:32:20.904Z,28.70
2023-03-28T15:37:50.105Z,28.96
2023-03-28T15:43:27.435Z,29.39
2023-03-28T15:49:03.942Z,28.80
2023-03-28T15:54:35.344Z,28.51
2023-03-28T16:00:02.910Z,28.88
2023-03-28T16:05:41.084Z,28.40
2023-03-28T16:11:27.999Z,28.26
2023-03-28T16:17:13.915Z,28.93
2023-03-28T16:22:49.963Z,28.56
2023-03-28T16:28:18.867Z,28.60
2023-03-28T16:33:46.511Z,28.20
2023-03-28T16:39:13.719Z,28.07
2023-03-28T16:44:41.190Z,27.88
2023-03-28T16:50:10.098Z,27.72
2023-03-28T16:55:38.659Z,28.57
2023-03-28T17:01:14.153Z,28.22
2023-03-28T17:06:45.380Z,28.01
2023-03-28T17:12:15.623Z,28.43
2023-03-28T17:17:43.835Z,29.04
2023-03-28T17:23:11.431Z,29.09
2023-03-28T17:28:42.413Z,29.83
2023-03-28T17:34:13.040Z,30.04
2023-03-28T17:39:40.389Z,30.47
2023-03-28T17:45:12.177Z,30.13
2023-03-28T17:50:41.936Z,30.41
2023-03-28T17:56:11.587Z,30.75
2023-03-28T18:01:40.461Z,31.19
2023-03-28T18:07:16.767Z,31.25
2023-03-28T18:12:50.246Z,31.58
2023-03-28T18:18:18.842Z,32.09
2023-03-28T18:23:50.896Z,32.70
2023-03-28T18:29:17.926Z,33.34
2023-03-28T18:34:46.944Z,33.55
2023-03-28T18:40:14.796Z,33.98
2023-03-28T18:45:42.260Z,35.17
2023-03-28T18:51:10.688Z,35.59
2023-03-28T18:56:40.108Z,36.29
2023-03-28T19:02:17.380Z,36.64
2023-03-28T19:07:47.323Z,36.97
2023-03-28T19:13:17.638Z,38.36
2023-03-28T19:18:48.742Z,38.06
2023-03-28T19:24:19.513Z,38.05
2023-03-28T19:29:47.260Z,38.19
2023-03-28T19:35:14.713Z,38.77
2023-03-28T19:40:42.433Z,39.44
2023-03-28T19:46:16.844Z,39.83
2023-03-28T19:51:50.049Z,41.03
2023-03-28T19:57:18.863Z,41.47
2023-03-28T20:02:46.582Z,42.35
2023-03-28T20:08:16.388Z,42.65
2023-03-28T20:13:45.123Z,43.02
2023-03-28T20:19:12.591Z,43.44
2023-03-28T20:24:40.708Z,44.80
2023-03-28T20:30:10.060Z,45.23
2023-03-28T20:35:37.665Z,45.06
2023-03-28T20:41:10.943Z,44.89
2023-03-28T20:46:46.610Z,44.87
2023-03-28T20:52:15.047Z,46.89
2023-03-28T20:57:42.944Z,46.72
2023-03-28T21:03:11.585Z,46.98
2023-03-28T21:08:39.460Z,47.59
2023-03-28T21:14:08.571Z,47.95
2023-03-28T21:19:35.750Z,47.98
2023-03-28T21:25:05.648Z,48.51
2023-03-28T21:30:33.746Z,48.99
2023-03-28T21:36:01.337Z,48.92
2023-03-28T21:41:28.497Z,49.53
2023-03-28T21:46:57.260Z,49.84
2023-03-28T21:52:24.448Z,50.60
2023-03-28T21:57:51.869Z,50.97
2023-03-28T22:03:21.180Z,51.19
2023-03-28T22:08:52.667Z,51.26
2023-03-28T22:14:20.644Z,51.55
2023-03-28T22:19:48.494Z,51.13
2023-03-28T22:25:15.555Z,51.94
2023-03-28T22:30:43.133Z,52.20
2023-03-28T22:36:11.816Z,52.58
2023-03-28T22:41:45.146Z,52.65
2023-03-28T22:47:12.855Z,53.33
2023-03-28T22:52:42.254Z,54.14
2023-03-28T22:58:10.172Z,54.42
2023-03-28T23:03:38.503Z,54.80
2023-03-28T23:09:05.794Z,55.11
2023-03-28T23:14:33.808Z,55.32
2023-03-28T23:20:07.441Z,55.20
2023-03-28T23:25:35.053Z,55.78
2023-03-28T23:31:03.164Z,56.14
2023-03-28T23:36:30.742Z,56.67
2023-03-28T23:41:57.847Z,56.64
2023-03-28T23:47:24.873Z,57.60
2023-03-28T23:52:51.937Z,57.35
2023-03-28T23:58:19.102Z,57.07
